createdAt,value
2019-03-15T00:01:39.968Z,17.70
2019-03-15T00:05:45.276Z,22.03
2019-03-15T00:09:50.482Z,18.70
2019-03-15T00:13:55.679Z,21.17
2019-03-15T00:18:01.877Z,16.77
2019-03-15T00:22:07.075Z,21.03
2019-03-15T00:26:12.205Z,22.83
2019-03-15T00:30:17.315Z,17.03
2019-03-15T00:34:22.435Z,18.00
2019-03-15T00:38:27.577Z,17.13
2019-03-15T00:42:32.680Z,18.00
2019-03-15T00:46:37.853Z,18.13
2019-03-15T00:50:42.966Z,22.20
2019-03-15T00:54:48.150Z,22.37
2019-03-15T00:58:53.242Z,16.23
2019-03-15T01:02:58.346Z,16.30
2019-03-15T01:07:03.464Z,19.27
2019-03-15T01:11:08.651Z,18.13
2019-03-15T01:15:14.062Z,17.53
2019-03-15T01:19:19.690Z,22.53
2019-03-15T01:23:24.888Z,16.07
2019-03-15T01:27:30.982Z,18.67
2019-03-15T01:31:36.093Z,20.77
2019-03-15T01:35:41.326Z,18.23
2019-03-15T01:39:46.793Z,13.10
2019-03-15T01:43:51.898Z,11.03
2019-03-15T01:47:59.646Z,14.83
2019-03-15T01:52:04.773Z,13.43
2019-03-15T01:56:09.967Z,16.70
2019-03-15T02:00:15.059Z,14.57
2019-03-15T02:04:20.159Z,15.63
2019-03-15T02:08:25.302Z,13.88
2019-03-15T02:12:30.472Z,12.17
2019-03-15T02:16:35.794Z,12.77
2019-03-15T02:20:40.896Z,19.10
2019-03-15T02:24:45.995Z,16.10
2019-03-15T02:28:51.163Z,15.23
2019-03-15T02:32:56.307Z,15.43
2019-03-15T02:37:01.481Z,10.13
2019-03-15T02:41:06.596Z,16.73
2019-03-15T02:45:11.758Z,12.10
2019-03-15T02:49:17.512Z,10.77
2019-03-15T02:53:22.645Z,12.90
2019-03-15T02:57:27.844Z,11.13
2019-03-15T03:01:34.258Z,14.03
2019-03-15T03:05:40.513Z,14.47
2019-03-15T03:09:45.704Z,12.77
2019-03-15T03:13:50.829Z,11.00
2019-03-15T03:17:55.959Z,9.57
2019-03-15T03:22:01.209Z,13.13
2019-03-15T03:26:07.257Z,15.00
2019-03-15T03:30:17.166Z,12.87
2019-03-15T03:34:22.259Z,17.27
2019-03-15T03:38:27.441Z,13.60
2019-03-15T03:42:32.659Z,12.77
2019-03-15T03:46:37.963Z,14.43
2019-03-15T03:50:43.517Z,13.83
2019-03-15T03:54:49.138Z,13.33
2019-03-15T03:58:54.266Z,14.90
2019-03-15T04:02:59.473Z,16.67
2019-03-15T04:07:04.796Z,15.40
2019-03-15T04:11:09.873Z,16.93
2019-03-15T04:15:14.968Z,15.83
2019-03-15T04:19:20.081Z,16.97
2019-03-15T04:23:25.242Z,21.30
2019-03-15T04:27:30.642Z,21.73
2019-03-15T04:31:35.705Z,21.83
2019-03-15T04:35:40.947Z,25.83
2019-03-15T04:39:46.056Z,30.10
2019-03-15T04:43:51.205Z,22.63
2019-03-15T04:47:56.486Z,22.77
2019-03-15T04:52:01.647Z,21.07
2019-03-15T04:56:06.808Z,20.60
2019-03-15T05:00:13.028Z,18.60
2019-03-15T05:04:18.224Z,23.63
2019-03-15T05:08:23.625Z,22.83
2019-03-15T05:12:28.949Z,22.73
2019-03-15T05:16:34.026Z,25.87
2019-03-15T05:20:39.250Z,28.53
2019-03-15T05:24:45.432Z,13.63
2019-03-15T05:28:50.575Z,19.37
2019-03-15T05:32:55.821Z,21.43
2019-03-15T05:37:00.945Z,21.03
2019-03-15T05:41:06.083Z,17.83
2019-03-15T05:45:11.183Z,19.77
2019-03-15T05:49:16.427Z,25.10
2019-03-15T05:53:21.562Z,18.23
2019-03-15T05:57:26.740Z,23.70
2019-03-15T06:01:31.950Z,25.40
2019-03-15T06:05:37.164Z,24.77
2019-03-15T06:09:42.617Z,25.33
2019-03-15T06:13:48.785Z,27.00
2019-03-15T06:17:55.770Z,25.73
2019-03-15T06:22:00.946Z,22.43
2019-03-15T06:26:06.076Z,25.27
2019-03-15T06:30:11.447Z,24.90
2019-03-15T06:34:16.546Z,21.90
2019-03-15T06:38:22.257Z,20.87
2019-03-15T06:42:27.455Z,20.63
2019-03-15T06:46:32.658Z,19.30
2019-03-15T06:50:37.818Z,22.75
2019-03-15T06:54:43.977Z,26.87
2019-03-15T06:58:49.084Z,23.33
2019-03-15T07:02:54.338Z,20.20
2019-03-15T07:06:59.473Z,23.47
2019-03-15T07:11:05.522Z,23.23
2019-03-15T07:15:10.801Z,25.60
2019-03-15T07:19:25.447Z,21.43
2019-03-15T07:23:22.891Z,18.10
2019-03-15T07:27:28.090Z,21.47
2019-03-15T07:31:33.312Z,19.20
2019-03-15T07:35:38.467Z,18.33
2019-03-15T07:39:44.863Z,18.40
2019-03-15T07:43:49.976Z,17.47
2019-03-15T07:47:56.974Z,13.37
2019-03-15T07:52:04.008Z,13.93
2019-03-15T07:56:08.897Z,12.90
2019-03-15T08:00:14.100Z,9.60
2019-03-15T08:04:21.797Z,13.03
2019-03-15T08:08:27.033Z,13.30
2019-03-15T08:12:32.190Z,9.03
2019-03-15T08:16:37.407Z,8.47
2019-03-15T08:20:42.635Z,7.93
2019-03-15T08:24:51.682Z,8.50
2019-03-15T08:28:56.681Z,7.97
2019-03-15T08:33:10.476Z,9.30
2019-03-15T08:37:18.584Z,9.87
2019-03-15T08:41:23.780Z,7.57
2019-03-15T08:45:29.392Z,7.53
2019-03-15T08:49:34.584Z,7.60
2019-03-15T08:53:39.746Z,6.27
2019-03-15T08:57:44.847Z,6.90
2019-03-15T09:01:50.014Z,7.00
2019-03-15T09:05:55.169Z,6.10
2019-03-15T09:10:03.255Z,7.47
2019-03-15T09:14:07.223Z,7.73
2019-03-15T09:18:12.486Z,5.63
2019-03-15T09:22:17.920Z,6.47
2019-03-15T09:26:23.100Z,5.67
2019-03-15T09:30:28.569Z,5.63
2019-03-15T09:34:33.763Z,9.03
2019-03-15T09:38:39.938Z,7.47
2019-03-15T09:42:45.153Z,13.20
2019-03-15T09:46:50.335Z,15.53
2019-03-15T09:50:56.320Z,17.00
2019-03-15T09:55:01.572Z,13.67
2019-03-15T09:59:09.117Z,15.70
2019-03-15T10:03:22.223Z,13.23
2019-03-15T10:07:21.211Z,14.90
2019-03-15T10:11:26.485Z,17.57
2019-03-15T10:15:31.660Z,18.33
2019-03-15T10:19:36.857Z,13.30
2019-03-15T10:23:42.003Z,18.10
2019-03-15T10:27:47.132Z,18.47
2019-03-15T10:31:53.320Z,20.13
2019-03-15T10:35:58.428Z,18.03
2019-03-15T10:40:05.792Z,23.73
2019-03-15T10:44:10.902Z,19.57
2019-03-15T10:48:24.990Z,22.13
2019-03-15T10:52:26.006Z,26.23
2019-03-15T10:56:31.394Z,22.40
2019-03-15T11:00:36.656Z,24.37
2019-03-15T11:04:43.842Z,23.07
2019-03-15T11:08:49.082Z,25.00
2019-03-15T11:12:54.182Z,27.37
2019-03-15T11:16:59.386Z,22.60
2019-03-15T11:21:04.488Z,27.17
2019-03-15T11:25:09.665Z,24.43
2019-03-15T11:29:15.078Z,25.33
2019-03-15T11:33:20.284Z,28.73
2019-03-15T11:37:25.842Z,25.70
2019-03-15T11:41:30.994Z,21.70
2019-03-15T11:45:36.301Z,19.67
2019-03-15T11:49:41.629Z,26.87
2019-03-15T11:53:46.761Z,24.73
2019-03-15T11:57:53.765Z,25.33
2019-03-15T12:02:03.902Z,22.60
2019-03-15T12:06:05.738Z,17.90
2019-03-15T12:10:10.980Z,21.73
2019-03-15T12:14:17.103Z,19.77
2019-03-15T12:18:23.276Z,21.15
2019-03-15T12:22:29.389Z,19.60
2019-03-15T12:26:40.197Z,19.07
2019-03-15T12:30:42.998Z,13.17
2019-03-15T12:34:48.442Z,18.60
2019-03-15T12:38:53.566Z,19.13
2019-03-15T12:42:58.689Z,17.40
2019-03-15T12:47:06.236Z,16.70
2019-03-15T12:51:12.535Z,18.77
2019-03-15T12:55:17.951Z,17.87
2019-03-15T12:59:24.193Z,14.50
2019-03-15T13:03:29.330Z,16.30
2019-03-15T13:07:34.585Z,14.87
2019-03-15T13:11:39.782Z,14.27
2019-03-15T13:15:44.974Z,12.50
2019-03-15T13:19:55.103Z,14.47
2019-03-15T13:23:57.000Z,10.43
2019-03-15T13:28:03.310Z,15.93
2019-03-15T13:32:08.531Z,13.80
2019-03-15T13:36:13.674Z,12.97
2019-03-15T13:40:18.853Z,11.83
2019-03-15T13:44:26.250Z,11.73
2019-03-15T13:48:30.906Z,14.33
2019-03-15T13:52:39.113Z,10.83
2019-03-15T13:56:44.515Z,11.07
2019-03-15T14:00:49.760Z,9.40
2019-03-15T14:04:54.887Z,10.70
2019-03-15T14:09:00.019Z,11.03
2019-03-15T14:13:05.204Z,8.40
2019-03-15T14:17:10.496Z,9.10
2019-03-15T14:21:15.696Z,9.13
2019-03-15T14:25:20.816Z,11.13
2019-03-15T14:29:26.045Z,8.27
2019-03-15T14:33:31.171Z,10.88
2019-03-15T14:37:36.428Z,10.00
2019-03-15T14:41:41.581Z,9.10
2019-03-15T14:45:46.897Z,11.07
2019-03-15T14:49:52.079Z,12.10
2019-03-15T14:53:57.231Z,14.57
2019-03-15T14:58:02.467Z,10.53
2019-03-15T15:02:07.652Z,13.23
2019-03-15T15:06:12.764Z,12.93
2019-03-15T15:10:18.042Z,15.57
2019-03-15T15:14:23.252Z,11.47
2019-03-15T15:18:28.365Z,17.42
2019-03-15T15:22:34.541Z,15.37
2019-03-15T15:26:39.687Z,10.60
2019-03-15T15:30:47.186Z,16.43
2019-03-15T15:34:56.112Z,15.80
2019-03-15T15:39:01.369Z,15.47
2019-03-15T15:43:07.992Z,12.07
2019-03-15T15:47:13.248Z,18.70
2019-03-15T15:51:19.453Z,18.33
2019-03-15T15:55:24.651Z,14.03
2019-03-15T15:59:29.912Z,16.47
2019-03-15T16:03:35.036Z,19.47
2019-03-15T16:07:40.391Z,17.43
2019-03-15T16:11:45.813Z,16.20
2019-03-15T16:15:50.971Z,18.70
2019-03-15T16:19:56.131Z,19.07
2019-03-15T16:24:01.265Z,15.13
2019-03-15T16:28:06.409Z,16.07
2019-03-15T16:32:11.582Z,16.77
2019-03-15T16:36:17.013Z,19.23
2019-03-15T16:40:22.110Z,16.73
2019-03-15T16:44:27.343Z,14.47
2019-03-15T16:48:32.568Z,10.60
2019-03-15T16:52:37.853Z,9.77
2019-03-15T16:56:43.086Z,10.63
2019-03-15T17:00:48.247Z,8.97
2019-03-15T17:04:53.489Z,11.53
2019-03-15T17:08:58.635Z,10.57
2019-03-15T17:13:04.114Z,9.17
2019-03-15T17:17:09.259Z,9.77
2019-03-15T17:21:14.451Z,9.17
2019-03-15T17:25:19.664Z,10.00
2019-03-15T17:29:24.844Z,7.50
2019-03-15T17:33:30.013Z,9.75
2019-03-15T17:37:35.136Z,11.47
2019-03-15T17:41:40.607Z,9.27
2019-03-15T17:45:47.445Z,9.47
2019-03-15T17:49:52.587Z,13.43
2019-03-15T17:53:57.772Z,4.30
2019-03-15T17:58:02.917Z,6.00
2019-03-15T18:02:08.179Z,7.10
2019-03-15T18:06:14.295Z,7.93
2019-03-15T18:10:19.424Z,7.63
2019-03-15T18:14:24.608Z,5.17
2019-03-15T18:18:29.862Z,8.63
2019-03-15T18:22:35.061Z,9.30
2019-03-15T18:26:40.215Z,12.97
2019-03-15T18:30:45.337Z,12.93
2019-03-15T18:34:50.531Z,12.63
2019-03-15T18:38:56.080Z,10.07
2019-03-15T18:43:01.240Z,16.57
2019-03-15T18:47:06.383Z,11.23
2019-03-15T18:51:11.485Z,13.77
2019-03-15T18:55:16.644Z,12.53
2019-03-15T18:59:21.783Z,14.47
2019-03-15T19:03:27.107Z,11.63
2019-03-15T19:07:32.511Z,11.87
2019-03-15T19:11:37.631Z,10.50
2019-03-15T19:15:45.833Z,11.57
2019-03-15T19:19:51.173Z,10.97
2019-03-15T19:23:56.339Z,12.13
2019-03-15T19:28:01.570Z,13.73
2019-03-15T19:32:06.697Z,13.13
2019-03-15T19:36:11.910Z,12.20
2019-03-15T19:40:17.237Z,12.10
2019-03-15T19:44:23.384Z,15.77
2019-03-15T19:48:28.567Z,10.73
2019-03-15T19:52:34.073Z,16.63
2019-03-15T19:56:39.211Z,16.57
2019-03-15T20:00:44.344Z,16.37
2019-03-15T20:04:49.547Z,17.73
2019-03-15T20:08:54.946Z,15.07
2019-03-15T20:13:02.631Z,17.80
2019-03-15T20:17:08.095Z,17.17
2019-03-15T20:21:14.045Z,16.83
2019-03-15T20:25:19.478Z,18.53
2019-03-15T20:29:24.998Z,13.07
2019-03-15T20:33:30.896Z,16.60
2019-03-15T20:37:36.270Z,21.07
2019-03-15T20:41:41.493Z,18.40
2019-03-15T20:45:46.634Z,19.47
2019-03-15T20:49:51.779Z,21.23
2019-03-15T20:53:56.894Z,19.43
2019-03-15T20:58:02.307Z,23.77
2019-03-15T21:02:07.779Z,19.80
2019-03-15T21:06:13.055Z,23.90
2019-03-15T21:10:18.295Z,25.37
2019-03-15T21:14:23.561Z,27.37
2019-03-15T21:18:28.913Z,29.30
2019-03-15T21:22:35.407Z,30.43
2019-03-15T21:26:40.506Z,26.67
2019-03-15T21:30:48.600Z,31.23
2019-03-15T21:34:52.535Z,28.37
2019-03-15T21:38:57.688Z,38.10
2019-03-15T21:43:02.883Z,25.97
2019-03-15T21:47:08.002Z,26.77
2019-03-15T21:51:14.644Z,32.47
2019-03-15T21:55:19.775Z,26.97
2019-03-15T21:59:24.964Z,26.20
2019-03-15T22:03:30.087Z,28.93
2019-03-15T22:07:35.599Z,31.27
2019-03-15T22:11:40.832Z,36.40
2019-03-15T22:15:45.955Z,31.90
2019-03-15T22:19:51.106Z,33.37
2019-03-15T22:23:56.230Z,36.20
2019-03-15T22:28:01.344Z,35.27
2019-03-15T22:32:06.547Z,30.63
2019-03-15T22:36:11.658Z,34.00
2019-03-15T22:40:17.766Z,26.40
2019-03-15T22:44:22.922Z,32.73
2019-03-15T22:48:28.099Z,31.43
2019-03-15T22:52:34.247Z,29.80
2019-03-15T22:56:39.715Z,30.67
2019-03-15T23:00:45.326Z,25.40
2019-03-15T23:04:52.149Z,32.30
2019-03-15T23:08:57.279Z,29.23
2019-03-15T23:13:02.441Z,31.07
2019-03-15T23:17:07.562Z,29.03
2019-03-15T23:21:12.710Z,27.07
2019-03-15T23:25:17.809Z,31.57
2019-03-15T23:29:22.967Z,19.60
2019-03-15T23:33:28.084Z,17.80
2019-03-15T23:37:33.202Z,14.27
2019-03-15T23:41:38.373Z,20.07
2019-03-15T23:45:45.616Z,21.17
2019-03-15T23:49:50.817Z,15.07
2019-03-15T23:53:56.898Z,15.93
2019-03-15T23:58:02.092Z,14.73
